Time;durP1;ratioP1;P1;durP2;ratioP2;P2;SDS_P1;SDS_P2;PMS_P1;PMS_P2;Temp;Humidity;BMP_temperature;BMP_pressure;BME280_temperature;BME280_humidity;BME280_pressure;Samples;Min_cycle;Max_cycle;Signal;HPM_P1;HPM_P2
2021/12/31 00:02:23;;;;;;;12.57;4.88;;;;;;;4.73;86.01;95244.44;5009277;28;20213;-72
2021/12/31 00:04:50;;;;;;;11.55;5.80;;;;;;;4.70;86.24;95239.63;5008453;28;20676;-71
2021/12/31 00:07:18;;;;;;;9.93;6.32;;;;;;;4.65;86.43;95242.31;5008748;28;20213;-71
2021/12/31 00:09:45;;;;;;;11.18;6.82;;;;;;;4.60;86.81;95242.34;5008611;28;20208;-71
2021/12/31 00:12:12;;;;;;;8.93;4.63;;;;;;;4.58;86.59;95241.81;5008610;28;20201;-72
2021/12/31 00:14:40;;;;;;;14.23;7.53;;;;;;;4.54;86.73;95246.13;5008896;28;20197;-72
2021/12/31 00:17:08;;;;;;;9.20;5.63;;;;;;;4.60;86.60;95258.44;5008467;28;20205;-72
2021/12/31 00:19:41;;;;;;;9.38;4.60;;;;;;;4.55;86.73;95253.91;5009644;28;20237;-72
2021/12/31 00:22:43;;;;;;;12.55;6.88;;;;;;;4.47;86.94;95253.66;5011735;28;20193;-72
2021/12/31 00:24:57;;;;;;;13.75;7.13;;;;;;;4.46;87.09;95260.13;5011844;28;20211;-72
2021/12/31 00:27:24;;;;;;;10.82;6.40;;;;;;;4.53;86.98;95255.25;5012052;28;20219;-72
2021/12/31 00:29:51;;;;;;;12.18;6.15;;;;;;;4.55;86.83;95247.72;5012016;28;20537;-72
2021/12/31 00:32:18;;;;;;;12.60;6.10;;;;;;;4.50;86.53;95255.81;5011802;28;20683;-72
2021/12/31 00:34:47;;;;;;;12.68;6.55;;;;;;;4.48;86.57;95258.78;5012308;28;20228;-72
2021/12/31 00:37:14;;;;;;;12.35;6.97;;;;;;;4.46;86.46;95260.13;5012113;28;20205;-72
2021/12/31 00:39:41;;;;;;;9.40;3.50;;;;;;;4.48;86.30;95263.31;5011682;28;20765;-73
2021/12/31 00:42:07;;;;;;;15.05;7.80;;;;;;;4.43;86.66;95276.75;5011589;28;20287;-72
2021/12/31 00:44:34;;;;;;;10.25;6.05;;;;;;;4.39;86.48;95273.00;5012117;28;20205;-75
2021/12/31 00:47:01;;;;;;;10.18;4.75;;;;;;;4.42;86.47;95272.44;5012023;28;20204;-72
2021/12/31 00:49:28;;;;;;;13.40;6.72;;;;;;;4.41;86.71;95260.91;5011670;28;20228;-72
2021/12/31 00:51:56;;;;;;;11.20;6.53;;;;;;;4.35;86.70;95250.50;5011630;28;20232;-73
2021/12/31 00:54:23;;;;;;;13.73;7.20;;;;;;;4.31;86.58;95241.38;5011455;28;20204;-72
2021/12/31 00:56:50;;;;;;;13.32;7.28;;;;;;;4.36;86.68;95230.66;5011490;28;20669;-72
2021/12/31 00:59:17;;;;;;;12.00;5.10;;;;;;;4.31;86.59;95215.38;5011574;28;20248;-73
2021/12/31 01:01:44;;;;;;;12.65;7.68;;;;;;;4.27;86.73;95215.09;5011707;28;20572;-71
2021/12/31 01:04:11;;;;;;;17.85;9.05;;;;;;;4.24;86.77;95226.38;5011318;28;20213;-71
2021/12/31 01:06:38;;;;;;;13.55;6.22;;;;;;;4.34;86.77;95235.47;5011675;28;20211;-71
2021/12/31 01:09:06;;;;;;;15.70;6.88;;;;;;;4.29;86.58;95239.78;5011206;28;20197;-71
2021/12/31 01:11:33;;;;;;;13.35;6.97;;;;;;;4.34;86.29;95240.84;5011381;28;20237;-72
2021/12/31 01:14:04;;;;;;;12.43;6.03;;;;;;;4.35;86.25;95232.53;5010461;28;20244;-71
2021/12/31 01:16:38;;;;;;;12.35;6.38;;;;;;;4.37;86.21;95234.94;5011435;28;20189;-72
2021/12/31 01:21:50;;;;;;;16.35;7.35;;;;;;;4.36;86.12;95233.34;5011285;28;20275;-72
2021/12/31 01:24:19;;;;;;;10.60;5.07;;;;;;;4.36;86.40;95244.06;5011215;28;20213;-71
2021/12/31 01:26:46;;;;;;;16.15;7.32;;;;;;;4.49;86.09;95232.75;5011232;28;20660;-72
2021/12/31 01:29:13;;;;;;;14.30;7.07;;;;;;;4.45;85.90;95247.78;5011040;28;20201;-72
2021/12/31 01:31:40;;;;;;;8.27;3.90;;;;;;;4.40;86.06;95266.56;5010327;28;20599;-72
2021/12/31 01:34:07;;;;;;;8.60;4.40;;;;;;;4.32;85.74;95256.41;5010648;28;20550;-72
2021/12/31 01:36:34;;;;;;;6.45;3.72;;;;;;;4.32;85.61;95254.53;5010828;28;20205;-71
2021/12/31 01:39:01;;;;;;;8.27;4.70;;;;;;;4.29;85.37;95260.41;5011019;28;20196;-80
2021/12/31 01:41:29;;;;;;;6.43;3.28;;;;;;;4.25;85.37;95254.78;5010693;28;20229;-72
2021/12/31 01:43:56;;;;;;;8.32;4.65;;;;;;;4.18;85.72;95248.91;5010156;28;20209;-71
2021/12/31 01:46:23;;;;;;;6.47;3.75;;;;;;;4.16;85.83;95247.59;5010508;28;20600;-73
2021/12/31 01:49:02;;;;;;;8.18;3.95;;;;;;;4.10;86.01;95254.03;5010692;28;20221;-73
2021/12/31 01:51:29;;;;;;;7.22;4.00;;;;;;;4.10;85.82;95246.78;5010945;28;20279;-73
2021/12/31 01:53:57;;;;;;;5.53;2.88;;;;;;;4.14;85.98;95271.19;5010385;28;20205;-71
2021/12/31 01:56:26;;;;;;;7.05;4.32;;;;;;;4.10;86.51;95265.53;5010268;28;20201;-71
2021/12/31 01:58:56;;;;;;;10.60;5.05;;;;;;;4.13;86.21;95278.41;5010391;28;20208;-73
2021/12/31 02:01:23;;;;;;;7.47;3.90;;;;;;;4.20;86.33;95272.78;5010583;28;20208;-73
2021/12/31 02:03:52;;;;;;;10.15;4.63;;;;;;;4.17;86.24;95268.75;5010057;28;20209;-72
2021/12/31 02:06:19;;;;;;;6.82;4.15;;;;;;;4.15;86.16;95265.53;5010261;28;20197;-72
2021/12/31 02:08:46;;;;;;;5.82;3.10;;;;;;;4.18;86.01;95265.00;5010375;28;20213;-72
2021/12/31 02:11:16;;;;;;;7.18;3.50;;;;;;;4.12;86.33;95260.72;5009712;28;20715;-72
2021/12/31 02:13:43;;;;;;;10.27;4.50;;;;;;;4.12;86.37;95266.09;5010125;28;20208;-71
2021/12/31 02:16:12;;;;;;;9.27;4.93;;;;;;;4.13;86.56;95270.38;5009964;28;20227;-72
2021/12/31 02:18:42;;;;;;;9.30;5.40;;;;;;;4.13;86.27;95265.00;5010447;28;20431;-75
2021/12/31 02:21:12;;;;;;;8.80;4.53;;;;;;;4.10;86.55;95268.22;5010080;28;20185;-72
2021/12/31 02:23:44;;;;;;;11.13;4.55;;;;;;;4.14;86.20;95260.44;5009775;28;20680;-72
2021/12/31 02:26:11;;;;;;;7.03;3.95;;;;;;;4.09;86.00;95272.00;5009978;28;20643;-74
2021/12/31 02:28:39;;;;;;;5.05;3.05;;;;;;;4.03;86.13;95265.03;5009803;28;20671;-73
2021/12/31 02:31:06;;;;;;;8.40;4.63;;;;;;;4.05;86.13;95275.50;5009676;28;20229;-74
2021/12/31 02:33:34;;;;;;;8.88;4.13;;;;;;;3.99;86.33;95261.28;5009717;28;20313;-72
2021/12/31 02:36:03;;;;;;;7.20;3.63;;;;;;;4.06;86.32;95274.41;5010034;28;20612;-74
2021/12/31 02:38:32;;;;;;;10.52;4.80;;;;;;;4.06;86.27;95274.41;5009804;28;20205;-71
2021/12/31 02:40:59;;;;;;;7.03;4.07;;;;;;;4.08;86.13;95259.69;5009916;28;20240;-74
2021/12/31 02:43:26;;;;;;;5.35;2.92;;;;;;;4.08;85.53;95269.59;5009746;28;20216;-76
2021/12/31 02:45:53;;;;;;;7.43;4.13;;;;;;;4.04;85.83;95274.69;5008655;28;20216;-73
2021/12/31 02:48:25;;;;;;;7.45;4.40;;;;;;;4.01;85.75;95277.09;5008955;28;20201;-75
2021/12/31 02:50:54;;;;;;;8.45;4.43;;;;;;;3.99;85.86;95293.44;5009723;28;20658;-73
2021/12/31 02:53:26;;;;;;;6.53;3.75;;;;;;;4.00;85.45;95305.78;5009556;28;20208;-75
2021/12/31 02:56:01;;;;;;;8.48;4.85;;;;;;;4.04;85.42;95293.44;5009638;28;20199;-73
2021/12/31 02:58:29;;;;;;;8.80;4.78;;;;;;;4.05;85.33;95297.75;5008440;28;20664;-73
2021/12/31 03:00:57;;;;;;;6.93;4.18;;;;;;;4.04;84.63;95312.22;5009242;28;20259;-73
2021/12/31 03:03:24;;;;;;;6.57;4.18;;;;;;;4.08;84.94;95305.25;5009442;28;20208;-74
2021/12/31 03:05:53;;;;;;;6.57;3.90;;;;;;;4.07;84.48;95300.97;5009393;28;20626;-73
2021/12/31 03:08:22;;;;;;;7.47;4.70;;;;;;;4.07;84.40;95300.97;5009204;28;20589;-72
2021/12/31 03:10:50;;;;;;;4.90;2.60;;;;;;;4.07;84.50;95295.59;5009263;28;20680;-72
2021/12/31 03:13:19;;;;;;;7.28;4.13;;;;;;;4.07;84.37;95300.16;5009139;28;20592;-72
2021/12/31 03:15:46;;;;;;;9.77;4.50;;;;;;;4.11;83.96;95307.38;5009508;28;20193;-72
2021/12/31 03:18:13;;;;;;;8.27;4.57;;;;;;;4.07;83.97;95306.31;5008876;28;20229;-73
2021/12/31 03:20:46;;;;;;;9.05;4.50;;;;;;;4.08;83.91;95312.50;5009116;28;20211;-72
2021/12/31 03:23:14;;;;;;;7.57;3.90;;;;;;;4.03;84.07;95307.91;5009378;28;20224;-72
2021/12/31 03:25:40;;;;;;;9.40;4.82;;;;;;;4.05;84.07;95324.53;5009255;28;20228;-72
2021/12/31 03:28:07;;;;;;;6.63;3.60;;;;;;;3.99;84.35;95328.28;5009476;28;20204;-74
2021/12/31 03:30:36;;;;;;;11.88;5.95;;;;;;;3.88;85.14;95324.81;5008883;28;20209;-72
2021/12/31 03:33:03;;;;;;;10.15;4.57;;;;;;;3.88;84.73;95334.72;5009033;28;20224;-73
2021/12/31 03:35:30;;;;;;;7.03;3.67;;;;;;;3.82;85.06;95327.78;5009099;28;20231;-72
2021/12/31 03:37:57;;;;;;;5.97;2.78;;;;;;;3.79;84.59;95330.97;5008983;28;20599;-75
2021/12/31 03:40:24;;;;;;;7.35;4.30;;;;;;;3.68;84.77;95326.69;5009108;28;20710;-72
2021/12/31 03:42:51;;;;;;;7.25;2.65;;;;;;;3.65;84.87;95327.22;5009116;28;20200;-72
2021/12/31 03:45:18;;;;;;;8.90;3.90;;;;;;;3.55;85.29;95330.69;5009096;28;20643;-72
2021/12/31 03:47:46;;;;;;;8.10;4.20;;;;;;;3.44;85.50;95348.59;5008695;28;20205;-72
2021/12/31 03:50:13;;;;;;;9.68;4.47;;;;;;;3.38;85.64;95347.00;5008404;28;20296;-74
2021/12/31 03:52:40;;;;;;;4.13;2.75;;;;;;;3.38;85.54;95357.72;5009320;28;20229;-72
2021/12/31 03:55:09;;;;;;;8.57;3.72;;;;;;;3.35;85.52;95358.22;5011301;28;20212;-71
2021/12/31 03:57:37;;;;;;;6.35;2.53;;;;;;;3.37;85.36;95349.94;5012588;28;20201;-74
2021/12/31 04:00:05;;;;;;;7.70;3.40;;;;;;;3.33;85.61;95340.81;5012375;28;20675;-72
2021/12/31 04:02:32;;;;;;;9.02;2.85;;;;;;;3.37;85.46;95356.09;5012449;28;20688;-73
2021/12/31 04:05:00;;;;;;;10.00;4.93;;;;;;;3.40;85.54;95366.28;5012290;28;20679;-72
2021/12/31 04:07:27;;;;;;;5.22;2.85;;;;;;;3.38;85.26;95360.38;5012459;28;20665;-72
2021/12/31 04:09:54;;;;;;;4.43;2.90;;;;;;;3.44;84.13;95353.97;5012672;28;20213;-72
2021/12/31 04:12:21;;;;;;;6.63;3.92;;;;;;;3.38;84.33;95340.84;5012651;28;20227;-72
2021/12/31 04:14:48;;;;;;;8.13;3.63;;;;;;;3.34;84.16;95345.09;5012341;28;20616;-72
2021/12/31 04:17:15;;;;;;;3.75;2.13;;;;;;;3.26;84.29;95338.41;5012520;28;20224;-72
2021/12/31 04:19:42;;;;;;;11.68;4.55;;;;;;;3.15;84.53;95334.06;5012049;28;20219;-72
2021/12/31 04:22:13;;;;;;;8.93;4.70;;;;;;;3.08;84.56;95336.19;5012458;28;20202;-72
2021/12/31 04:24:52;;;;;;;8.85;4.95;;;;;;;3.03;84.94;95349.56;5012377;28;20193;-73
2021/12/31 04:27:20;;;;;;;6.47;3.22;;;;;;;3.00;85.09;95348.22;5012358;28;20661;-73
2021/12/31 04:29:52;;;;;;;8.73;4.20;;;;;;;2.94;85.48;95335.09;5012196;28;20201;-73
2021/12/31 04:32:20;;;;;;;9.75;4.68;;;;;;;2.85;86.01;95337.47;5011623;28;20228;-72
2021/12/31 04:34:47;;;;;;;14.02;4.03;;;;;;;2.79;86.28;95339.31;5011822;28;20200;-71
2021/12/31 04:37:15;;;;;;;6.30;3.80;;;;;;;2.78;86.15;95336.88;5011921;28;20201;-72
2021/12/31 04:39:42;;;;;;;8.75;4.55;;;;;;;2.80;86.44;95346.25;5012080;28;20217;-71
2021/12/31 04:42:09;;;;;;;10.00;4.60;;;;;;;2.76;86.68;95352.38;5011783;28;20237;-72
2021/12/31 04:44:36;;;;;;;8.13;4.95;;;;;;;2.66;87.14;95355.81;5011911;28;20256;-72
2021/12/31 04:47:04;;;;;;;12.43;5.40;;;;;;;2.59;87.12;95355.28;5012080;28;20262;-72
2021/12/31 04:49:31;;;;;;;11.95;5.38;;;;;;;2.54;87.80;95368.59;5011218;28;20236;-72
2021/12/31 04:51:57;;;;;;;8.27;4.40;;;;;;;2.64;87.32;95365.97;5011547;28;20229;-71
2021/12/31 04:54:26;;;;;;;11.30;4.97;;;;;;;2.57;87.31;95367.28;5011822;28;20200;-72
2021/12/31 04:56:53;;;;;;;9.02;4.65;;;;;;;2.51;87.60;95363.75;5012019;28;20205;-72
2021/12/31 04:59:20;;;;;;;7.22;3.80;;;;;;;2.56;87.58;95358.44;5011391;28;20216;-72
2021/12/31 05:01:48;;;;;;;13.35;6.15;;;;;;;2.46;88.05;95356.50;5010711;28;20621;-72
2021/12/31 05:04:15;;;;;;;9.02;4.68;;;;;;;2.33;88.72;95351.63;5010953;28;20677;-72
2021/12/31 05:06:42;;;;;;;9.15;4.88;;;;;;;2.31;88.44;95344.94;5010437;28;20552;-72
2021/12/31 05:09:10;;;;;;;1.58;1.30;;;;;;;2.31;88.42;95352.97;5011364;28;20680;-71
2021/12/31 05:11:38;;;;;;;6.72;3.40;;;;;;;2.24;88.53;95361.19;5010623;28;20635;-73
2021/12/31 05:14:05;;;;;;;6.78;3.50;;;;;;;2.39;87.72;95366.63;5010946;28;20201;-72
2021/12/31 05:16:35;;;;;;;9.15;4.35;;;;;;;2.42;87.47;95365.31;5010892;28;20255;-71
2021/12/31 05:19:03;;;;;;;4.07;2.13;;;;;;;2.40;87.23;95370.94;5011496;28;20220;-73
2021/12/31 05:21:30;;;;;;;4.63;2.42;;;;;;;2.44;86.96;95365.88;5010590;28;20204;-73
2021/12/31 05:23:57;;;;;;;4.53;2.83;;;;;;;2.42;86.80;95351.97;5010911;28;20201;-73
2021/12/31 05:26:23;;;;;;;3.60;2.47;;;;;;;2.62;86.08;95365.44;5010437;28;20205;-72
2021/12/31 05:28:52;;;;;;;3.60;2.20;;;;;;;2.60;86.09;95364.09;5010332;28;20276;-72
2021/12/31 05:31:19;;;;;;;4.30;3.33;;;;;;;2.63;85.99;95371.56;5010938;28;20208;-72
2021/12/31 05:33:46;;;;;;;6.07;2.88;;;;;;;2.64;85.51;95349.94;5010771;28;20284;-73
2021/12/31 05:36:12;;;;;;;3.63;1.90;;;;;;;2.83;85.07;95356.44;5010725;28;20622;-72
2021/12/31 05:38:40;;;;;;;4.78;2.58;;;;;;;2.90;84.86;95358.06;5010577;28;20225;-72
2021/12/31 05:41:07;;;;;;;4.78;3.33;;;;;;;2.94;84.51;95356.50;5010749;28;20240;-76
2021/12/31 05:43:34;;;;;;;8.50;3.88;;;;;;;2.93;84.64;95358.34;5010656;28;20201;-74
2021/12/31 05:46:02;;;;;;;6.63;2.92;;;;;;;2.98;84.50;95360.25;5010727;28;20588;-73
2021/12/31 05:48:30;;;;;;;5.00;2.53;;;;;;;3.00;84.29;95358.13;5010537;28;20292;-73
2021/12/31 05:50:58;;;;;;;7.78;3.03;;;;;;;3.02;84.27;95359.44;5010488;28;20292;-72
2021/12/31 05:53:25;;;;;;;8.25;3.55;;;;;;;2.99;84.77;95369.91;5010585;28;20233;-71
2021/12/31 05:55:52;;;;;;;6.97;4.22;;;;;;;2.94;84.88;95364.50;5010365;28;20201;-72
2021/12/31 05:58:18;;;;;;;2.63;2.05;;;;;;;3.00;84.56;95380.34;5010779;28;20267;-73
2021/12/31 06:00:45;;;;;;;4.28;2.75;;;;;;;3.04;84.76;95383.28;5010240;28;20201;-74
2021/12/31 06:03:14;;;;;;;2.80;2.17;;;;;;;3.10;84.57;95392.97;5010684;28;20201;-71
2021/12/31 06:05:41;;;;;;;8.25;4.20;;;;;;;3.15;84.52;95392.97;5009857;28;20687;-72
2021/12/31 06:08:08;;;;;;;9.18;5.07;;;;;;;3.12;84.89;95390.81;5010521;28;20201;-71
2021/12/31 06:10:35;;;;;;;7.45;2.97;;;;;;;3.19;84.17;95386.03;5010034;28;20201;-72
2021/12/31 06:13:02;;;;;;;7.47;4.53;;;;;;;3.29;84.09;95396.75;5010127;28;20232;-72
2021/12/31 06:15:30;;;;;;;8.48;4.13;;;;;;;3.31;84.15;95399.19;5010416;28;20204;-72
2021/12/31 06:17:57;;;;;;;9.10;4.32;;;;;;;3.35;84.11;95395.72;5010008;28;20655;-73
2021/12/31 06:20:28;;;;;;;11.05;5.38;;;;;;;3.27;83.76;95390.88;5010074;28;20201;-72
2021/12/31 06:22:57;;;;;;;9.90;4.25;;;;;;;3.33;83.95;95392.50;4990224;28;20633;-73
2021/12/31 06:25:24;;;;;;;9.38;5.07;;;;;;;3.48;84.10;95392.53;4990512;28;20542;-73
2021/12/31 06:27:51;;;;;;;10.63;5.68;;;;;;;3.95;83.09;95404.97;4990688;28;20267;-73
2021/12/31 06:30:18;;;;;;;10.90;4.90;;;;;;;4.43;80.53;95400.13;4990279;28;20206;-73
2021/12/31 06:32:45;;;;;;;9.35;4.55;;;;;;;4.64;79.37;95396.38;4990312;28;20229;-73
2021/12/31 06:35:12;;;;;;;10.00;5.28;;;;;;;4.88;79.09;95396.56;4990020;28;20198;-73
2021/12/31 06:37:40;;;;;;;11.43;5.53;;;;;;;4.91;78.94;95404.09;4990209;28;20572;-72
2021/12/31 06:40:11;;;;;;;13.77;6.18;;;;;;;5.02;78.39;95418.28;4990107;28;20692;-73
2021/12/31 06:42:37;;;;;;;11.50;5.53;;;;;;;5.04;78.36;95416.94;4990088;28;20237;-73
2021/12/31 06:45:05;;;;;;;7.97;5.20;;;;;;;4.86;78.56;95421.00;4990416;28;20205;-73
2021/12/31 06:47:32;;;;;;;10.65;5.47;;;;;;;5.05;78.00;95417.75;4990183;28;20643;-73
2021/12/31 06:49:59;;;;;;;8.40;5.85;;;;;;;5.17;77.39;95420.91;4989790;28;20217;-72
2021/12/31 06:52:26;;;;;;;9.60;4.90;;;;;;;5.29;77.38;95421.41;4989907;28;20260;-72
2021/12/31 06:54:54;;;;;;;9.25;5.25;;;;;;;5.68;76.60;95405.38;4989343;28;20673;-73
2021/12/31 06:57:21;;;;;;;11.15;6.38;;;;;;;5.62;75.70;95404.59;4990122;28;20206;-73
2021/12/31 06:59:48;;;;;;;9.18;5.10;;;;;;;5.64;76.03;95404.31;5007806;28;20208;-73
2021/12/31 07:02:15;;;;;;;9.60;3.88;;;;;;;5.38;75.93;95390.19;5009711;28;20259;-72
2021/12/31 07:04:42;;;;;;;7.90;4.43;;;;;;;5.46;76.67;95397.72;5009474;28;20204;-72
2021/12/31 07:07:09;;;;;;;9.18;4.65;;;;;;;5.33;76.47;95409.03;5009227;28;20207;-73
2021/12/31 07:09:35;;;;;;;4.57;2.67;;;;;;;5.11;76.98;95405.88;5009345;28;20190;-72
2021/12/31 07:12:04;;;;;;;3.50;1.95;;;;;;;4.96;77.81;95412.91;5009254;28;20202;-73
2021/12/31 07:14:31;;;;;;;6.13;2.65;;;;;;;5.14;77.15;95414.22;5009355;28;20262;-73
2021/12/31 07:16:58;;;;;;;9.85;5.10;;;;;;;5.14;77.33;95405.34;5009324;28;20217;-72
2021/12/31 07:19:25;;;;;;;7.10;4.15;;;;;;;5.28;77.20;95406.38;5009497;28;20212;-72
2021/12/31 07:21:52;;;;;;;3.80;2.60;;;;;;;5.37;76.66;95410.09;5009665;28;20192;-72
2021/12/31 07:24:19;;;;;;;8.73;4.07;;;;;;;5.63;76.22;95413.44;5008740;28;20193;-72
2021/12/31 07:26:45;;;;;;;4.30;2.25;;;;;;;5.91;75.64;95403.91;5007925;28;20824;-72
2021/12/31 07:29:14;;;;;;;3.50;1.85;;;;;;;6.03;75.72;95404.38;5009660;28;20200;-73
2021/12/31 07:31:41;;;;;;;5.97;2.80;;;;;;;6.11;75.47;95398.41;5013069;28;20603;-72
2021/12/31 07:34:08;;;;;;;3.80;2.08;;;;;;;5.98;75.51;95393.66;5013226;28;20291;-75
2021/12/31 07:36:35;;;;;;;1.85;1.23;;;;;;;6.01;75.48;95395.81;5012568;28;20664;-73
2021/12/31 07:39:05;;;;;;;3.75;1.80;;;;;;;5.93;75.91;95401.75;5012714;28;20215;-73
2021/12/31 07:41:33;;;;;;;0.98;0.82;;;;;;;6.09;75.28;95405.94;5012517;28;20229;-72
2021/12/31 07:44:00;;;;;;;3.75;1.77;;;;;;;6.02;75.78;95410.81;5013161;28;20197;-72
2021/12/31 07:46:29;;;;;;;3.75;1.50;;;;;;;5.88;75.76;95399.88;5013155;28;20204;-73
2021/12/31 07:48:56;;;;;;;1.88;1.15;;;;;;;5.94;75.98;95409.53;5013174;28;20640;-73
2021/12/31 07:51:23;;;;;;;3.25;2.00;;;;;;;6.06;75.82;95406.50;5012424;28;20348;-75
2021/12/31 07:53:50;;;;;;;3.83;2.22;;;;;;;6.08;75.65;95404.34;5012794;28;20587;-74
2021/12/31 07:56:19;;;;;;;2.22;1.42;;;;;;;6.20;75.04;95407.47;5012359;28;20204;-73
2021/12/31 07:58:46;;;;;;;2.88;1.80;;;;;;;6.20;74.97;95402.09;5012875;28;20468;-72
2021/12/31 08:01:12;;;;;;;3.00;2.13;;;;;;;6.15;75.33;95417.50;5013554;28;20204;-72
2021/12/31 08:03:41;;;;;;;2.05;1.67;;;;;;;6.12;75.28;95420.72;5012094;28;20208;-73
2021/12/31 08:06:08;;;;;;;1.65;1.33;;;;;;;6.17;75.32;95418.00;5011826;28;20201;-72
2021/12/31 08:08:34;;;;;;;6.30;2.40;;;;;;;6.20;75.21;95429.00;5011643;28;20208;-73
2021/12/31 08:11:01;;;;;;;1.77;0.93;;;;;;;6.34;75.26;95418.41;5012534;28;20204;-73
2021/12/31 08:13:28;;;;;;;2.88;1.65;;;;;;;6.22;75.16;95415.28;5012635;28;20906;-77
2021/12/31 08:15:55;;;;;;;2.30;1.58;;;;;;;6.26;75.23;95422.50;5012592;28;20208;-72
2021/12/31 08:18:22;;;;;;;2.20;1.77;;;;;;;6.28;75.19;95416.84;5011584;28;20217;-72
2021/12/31 08:20:51;;;;;;;8.63;5.18;;;;;;;6.17;75.86;95429.56;5012776;28;21578;-72
2021/12/31 08:23:18;;;;;;;11.57;6.18;;;;;;;6.37;74.90;95415.97;5012261;28;20664;-72
2021/12/31 08:25:44;;;;;;;7.13;4.40;;;;;;;6.54;73.76;95414.75;5012357;28;20205;-72
2021/12/31 08:28:12;;;;;;;6.05;2.78;;;;;;;6.37;73.46;95424.03;5011893;28;20248;-72
2021/12/31 08:30:39;;;;;;;13.40;4.90;;;;;;;6.14;74.48;95419.38;5012265;28;20267;-72
2021/12/31 08:33:06;;;;;;;9.45;4.85;;;;;;;5.90;75.70;95423.81;5012154;28;20264;-72
2021/12/31 08:35:33;;;;;;;8.98;4.43;;;;;;;5.63;75.97;95422.31;5012246;28;20256;-74
2021/12/31 08:38:01;;;;;;;12.50;6.18;;;;;;;5.68;76.46;95414.25;5012118;28;20204;-72
2021/12/31 08:40:28;;;;;;;10.75;6.18;;;;;;;5.83;75.97;95413.34;5011037;28;20214;-73
2021/12/31 08:42:56;;;;;;;18.00;6.47;;;;;;;5.84;75.57;95414.16;5011923;28;20201;-73
2021/12/31 08:45:24;;;;;;;12.65;5.13;;;;;;;5.88;75.29;95416.03;5011519;28;20618;-72
2021/12/31 08:47:51;;;;;;;12.80;5.97;;;;;;;5.99;75.26;95406.84;5011926;28;20263;-72
2021/12/31 08:50:18;;;;;;;11.10;5.00;;;;;;;5.85;75.29;95407.69;5011639;28;20584;-73
2021/12/31 08:52:45;;;;;;;8.80;4.50;;;;;;;5.82;75.26;95401.00;5011811;28;20232;-72
2021/12/31 08:55:14;;;;;;;7.60;4.47;;;;;;;5.88;75.90;95402.59;5011987;28;20208;-73
2021/12/31 08:57:42;;;;;;;8.43;3.70;;;;;;;5.84;75.66;95401.53;5011784;28;20209;-74
2021/12/31 09:00:10;;;;;;;14.07;6.78;;;;;;;6.03;75.75;95401.69;5011119;28;20205;-73
2021/12/31 09:02:38;;;;;;;5.20;3.42;;;;;;;5.88;75.54;95388.31;5011683;28;20208;-73
2021/12/31 09:05:06;;;;;;;6.70;3.50;;;;;;;6.03;75.17;95401.69;5011694;28;20259;-73
2021/12/31 09:07:33;;;;;;;10.20;5.75;;;;;;;6.15;75.24;95388.69;5011514;28;20241;-72
2021/12/31 09:10:00;;;;;;;5.18;3.40;;;;;;;6.14;75.04;95386.28;5010837;28;20200;-73
2021/12/31 09:12:28;;;;;;;6.57;3.25;;;;;;;6.27;74.54;95375.69;5011462;28;20209;-73
2021/12/31 09:14:55;;;;;;;9.23;5.53;;;;;;;6.33;74.79;95379.94;5011150;28;20453;-72
2021/12/31 09:17:22;;;;;;;6.93;3.92;;;;;;;6.53;74.21;95380.84;5011698;28;20232;-74
2021/12/31 09:19:49;;;;;;;12.07;6.80;;;;;;;6.60;74.09;95362.47;5011558;28;20227;-72
2021/12/31 09:22:16;;;;;;;9.30;5.15;;;;;;;6.51;73.95;95374.94;5011193;28;20196;-73
2021/12/31 09:24:43;;;;;;;8.35;4.70;;;;;;;6.61;74.33;95374.84;5010663;28;20212;-73
2021/12/31 09:27:11;;;;;;;11.63;6.25;;;;;;;6.84;73.52;95374.06;5011413;28;20287;-73
2021/12/31 09:29:39;;;;;;;13.45;6.47;;;;;;;6.87;73.00;95367.31;5010689;28;20208;-72
2021/12/31 09:32:07;;;;;;;10.32;6.10;;;;;;;7.08;72.74;95356.03;5011062;28;20243;-73
2021/12/31 09:34:35;;;;;;;18.15;9.63;;;;;;;7.23;72.14;95367.72;5010938;28;20229;-72
2021/12/31 09:37:02;;;;;;;14.73;8.05;;;;;;;7.43;72.18;95375.53;5010850;28;20546;-72
2021/12/31 09:39:29;;;;;;;14.32;8.52;;;;;;;7.28;71.79;95356.88;5010967;28;20552;-72
2021/12/31 09:41:55;;;;;;;11.18;5.78;;;;;;;7.57;71.45;95360.25;5010083;28;20596;-72
2021/12/31 09:44:23;;;;;;;10.50;6.55;;;;;;;7.72;71.72;95353.84;5010812;28;20201;-74
2021/12/31 09:46:51;;;;;;;11.05;5.45;;;;;;;7.88;70.63;95349.84;5010581;28;20228;-73
2021/12/31 09:49:18;;;;;;;14.05;7.13;;;;;;;7.97;70.13;95341.88;5010777;28;20225;-72
2021/12/31 09:51:45;;;;;;;15.88;6.18;;;;;;;7.98;70.56;95344.28;5009906;28;20569;-73
2021/12/31 09:54:13;;;;;;;10.13;4.03;;;;;;;7.90;70.65;95346.88;5010305;28;20770;-74
2021/12/31 09:56:40;;;;;;;8.95;5.22;;;;;;;7.78;70.39;95342.72;5010438;28;20208;-73
2021/12/31 09:59:08;;;;;;;11.38;6.38;;;;;;;7.64;71.49;95343.75;5010511;28;20256;-73
2021/12/31 10:01:45;;;;;;;14.55;8.30;;;;;;;7.70;71.08;95337.97;5009944;28;20243;-73
2021/12/31 10:04:13;;;;;;;11.55;6.68;;;;;;;7.76;71.25;95339.50;5010609;28;20196;-72
2021/12/31 10:07:09;;;;;;;8.60;4.82;;;;;;;7.83;70.95;95323.75;5010443;28;20201;-73
2021/12/31 10:09:40;;;;;;;7.97;4.85;;;;;;;8.10;70.25;95322.25;5010396;28;20196;-73
2021/12/31 10:12:08;;;;;;;10.00;6.22;;;;;;;8.36;69.85;95326.16;5009960;28;21052;-73
2021/12/31 10:14:36;;;;;;;10.18;5.80;;;;;;;8.52;68.90;95316.72;5009707;28;20225;-73
2021/12/31 10:17:03;;;;;;;17.30;9.32;;;;;;;8.58;68.94;95316.63;5009774;28;20232;-72
2021/12/31 10:19:31;;;;;;;10.77;6.30;;;;;;;8.78;68.44;95313.53;5009836;28;20197;-72
2021/12/31 10:21:58;;;;;;;11.48;6.43;;;;;;;8.80;68.50;95311.34;5009415;28;20649;-73
2021/12/31 10:24:28;;;;;;;13.10;7.57;;;;;;;9.07;67.92;95305.94;5009842;28;20212;-74
2021/12/31 10:26:57;;;;;;;13.57;8.52;;;;;;;8.96;68.00;95296.44;5009997;28;20740;-73
2021/12/31 10:29:25;;;;;;;11.73;7.32;;;;;;;8.93;68.03;95288.94;5009688;28;20289;-73
2021/12/31 10:31:53;;;;;;;12.80;6.72;;;;;;;8.98;67.66;95280.72;5008706;28;20197;-72
2021/12/31 10:34:29;;;;;;;14.32;8.07;;;;;;;9.03;68.21;95288.72;5008961;28;20718;-76
2021/12/31 10:36:59;;;;;;;12.45;6.30;;;;;;;9.00;68.38;95283.13;5009954;28;20220;-73
2021/12/31 10:39:29;;;;;;;9.07;5.18;;;;;;;9.26;68.58;95276.09;5009832;28;20222;-73
2021/12/31 10:42:04;;;;;;;12.50;4.72;;;;;;;9.41;68.11;95272.28;5009503;28;20751;-72
2021/12/31 10:44:49;;;;;;;5.38;3.13;;;;;;;9.67;67.95;95270.59;5009457;28;20204;-72
2021/12/31 10:47:17;;;;;;;5.03;3.20;;;;;;;9.81;68.15;95263.22;5009826;28;20211;-73
2021/12/31 10:50:16;;;;;;;4.63;2.97;;;;;;;10.13;67.80;95250.53;5009448;28;20767;-72
2021/12/31 10:52:59;;;;;;;5.00;3.08;;;;;;;10.26;66.85;95249.69;5009893;28;20197;-72
2021/12/31 10:55:30;;;;;;;3.80;2.85;;;;;;;10.25;67.49;95248.13;5009522;28;20722;-73
2021/12/31 10:57:58;;;;;;;3.75;2.70;;;;;;;10.21;67.58;95257.94;5009771;28;20189;-71
2021/12/31 11:00:27;;;;;;;5.00;2.80;;;;;;;10.13;67.76;95255.94;5009229;28;20830;-73
2021/12/31 11:02:54;;;;;;;4.55;3.10;;;;;;;10.46;67.94;95253.78;5009118;28;20504;-72
2021/12/31 11:05:22;;;;;;;4.13;2.13;;;;;;;10.23;67.57;95253.03;5008571;28;20209;-73
2021/12/31 11:07:52;;;;;;;4.28;3.03;;;;;;;10.16;67.88;95256.13;5009985;28;20201;-73
2021/12/31 11:10:20;;;;;;;5.40;3.53;;;;;;;10.63;67.31;95256.59;5009024;28;20255;-72
2021/12/31 11:12:49;;;;;;;4.15;2.97;;;;;;;10.38;66.78;95257.25;5009757;28;20208;-74
2021/12/31 11:15:16;;;;;;;9.10;4.88;;;;;;;10.39;66.19;95251.50;5008910;28;20323;-73
2021/12/31 11:17:43;;;;;;;3.38;2.63;;;;;;;10.54;66.22;95261.16;5009407;28;20225;-73
2021/12/31 11:20:13;;;;;;;4.20;2.85;;;;;;;10.65;66.85;95262.50;5009811;28;20207;-73
2021/12/31 11:22:40;;;;;;;4.00;2.95;;;;;;;10.98;65.73;95250.16;5009411;28;20205;-73
2021/12/31 11:25:24;;;;;;;2.80;1.50;;;;;;;10.77;65.21;95253.78;5009242;28;20201;-78
2021/12/31 11:27:52;;;;;;;4.85;3.20;;;;;;;10.88;65.65;95249.66;5009347;28;20229;-72
2021/12/31 11:30:31;;;;;;;6.25;3.15;;;;;;;10.80;66.37;95258.53;5009165;28;20211;-72
2021/12/31 11:33:00;;;;;;;6.53;2.63;;;;;;;10.62;65.65;95242.25;5009309;28;20240;-75
2021/12/31 11:35:30;;;;;;;5.88;3.30;;;;;;;10.11;67.50;95269.81;5008987;28;20233;-74
2021/12/31 11:37:57;;;;;;;4.43;3.30;;;;;;;10.20;67.63;95261.78;5009410;28;20201;-74
2021/12/31 11:40:29;;;;;;;5.32;3.92;;;;;;;9.95;68.15;95255.84;5008996;28;20197;-72
2021/12/31 11:43:25;;;;;;;4.72;3.25;;;;;;;9.80;69.28;95269.75;5009048;28;20189;-72
2021/12/31 11:46:32;;;;;;;4.72;3.08;;;;;;;9.90;69.28;95269.50;4984894;28;20201;-74
2021/12/31 11:49:00;;;;;;;4.97;3.03;;;;;;;9.75;69.95;95267.16;5005818;28;20217;-73